Flight Track Log - Related Links

Times and Time Zones

All times are in EDT time to prevent confusion due to time zone crossing. See the XOJ552 flight status page for this flight to view local times or setup timezone preferences in your user account.

Time Position Orientation Groundspeed Altitude Reporting Facility
EDT Latitude Longitude Course Direction KTS MPH feet Rate Location/Type
Fri 07:50:40 PM 40.8333 -74.0833 270° West 178 205 1,000  Level New York TRACON
Fri 07:51:35 PM 40.8167 -74.1500 252° West 194 223 1,700 1,895 Climbing New York TRACON
Fri 07:52:34 PM 40.8167 -74.2333 270° West 212 244 4,600 3,277 Climbing New York TRACON
Fri 07:53:34 PM 40.8333 -74.3000 288° West 223 257 8,200 3,250 Climbing New York TRACON
Fri 07:54:34 PM 40.8500 -74.4000 282° West 276 318 11,100 2,850 Climbing New York TRACON
Fri 07:55:34 PM 40.8500 -74.5000 270° West 315 362 13,900 2,344 Climbing New York TRACON
Fri 07:56:00 PM 40.8167 -74.7750 270° West  Level FlightAware Approximate
Fri 07:57:05 PM 40.8361 -74.6878 264° West 341 392 17,000  Level New York Center
Fri 07:58:05 PM 40.8283 -74.7997 265° West 341 392 17,100 1,279 Climbing New York Center
Fri 07:59:07 PM 40.8172 -74.9389 264° West 355 409 19,600 2,550 Climbing New York Center
Fri 08:00:05 PM 40.8103 -75.0728 266° West 355 409 22,200 2,723 Climbing New York Center
Fri 08:01:06 PM 40.7953 -75.1953 261° West 355 409 25,000 2,430 Climbing New York Center
Fri 08:02:06 PM 40.7767 -75.3036 257° West 348 400 27,100 1,850 Climbing New York Center
Fri 08:03:06 PM 40.7467 -75.4303 253° West 356 410 28,700 1,950 Climbing New York Center
Fri 08:04:06 PM 40.6997 -75.5639 245° Southwest 364 419 31,000 2,017 Climbing New York Center
Fri 08:05:05 PM 40.6550 -75.6867 244° Southwest 369 425 32,700 1,361 Climbing New York Center
Fri 08:06:05 PM 40.6058 -75.8144 243° Southwest 385 443 33,700 1,091 Climbing New York Center
Fri 08:07:06 PM 40.5572 -75.9311 241° Southwest 397 457 34,900 1,438 Climbing New York Center
Fri 08:08:06 PM 40.5097 -76.0614 244° Southwest 403 464 36,600 1,550 Climbing New York Center
Fri 08:09:06 PM 40.4603 -76.1883 243° Southwest 397 457 38,000 1,513 Climbing New York Center
Fri 08:10:05 PM 40.4128 -76.3100 243° Southwest 392 451 39,600 1,311 Climbing New York Center
Fri 08:11:05 PM 40.3631 -76.4369 243° Southwest 374 430 40,600 700 Climbing New York Center
Fri 08:12:05 PM 40.3181 -76.5503 243° Southwest 361 415 41,000 393 Climbing New York Center
Fri 08:13:07 PM 40.2725 -76.6689 243° Southwest 361 415 41,400 295 Climbing New York Center
Fri 08:14:07 PM 40.2228 -76.7872 241° Southwest 361 415 41,600 153 Climbing New York Center
Fri 08:15:05 PM 40.1747 -76.9106 243° Southwest 367 422 41,700 151 Climbing New York Center
Fri 08:16:06 PM 40.1294 -77.0208 242° Southwest 386 444 41,900 295 Climbing New York Center
Fri 08:17:07 PM 40.0789 -77.1464 242° Southwest 386 444 42,300 413 Climbing New York Center
Fri 08:18:46 PM 39.9906 -77.3719 243° Southwest 377 434 43,000 264 Climbing Cleveland Center
Fri 08:19:46 PM 39.9589 -77.5089 253° West 377 434 43,000  Level Cleveland Center
Fri 08:20:46 PM 39.9628 -77.6550 272° West 397 457 43,000  Level Cleveland Center
Fri 08:21:46 PM 39.9686 -77.8064 273° West 408 470 43,000  Level Cleveland Center
Fri 08:22:46 PM 39.9742 -77.9497 273° West 408 470 43,000  Level Cleveland Center
Fri 08:23:46 PM 39.9794 -78.0958 273° West 408 470 43,000  Level Cleveland Center
Fri 08:24:46 PM 39.9825 -78.2311 272° West 408 470 43,000  Level Cleveland Center
Fri 08:25:46 PM 39.9814 -78.3939 270° West 408 470 43,000  Level Cleveland Center
Fri 08:26:46 PM 39.9842 -78.5400 271° West 413 475 43,000  Level Cleveland Center
Fri 08:27:46 PM 39.9889 -78.6864 272° West 413 475 43,000  Level Cleveland Center
Fri 08:28:46 PM 39.9933 -78.8353 272° West 408 470 43,000  Level Cleveland Center
Fri 08:29:46 PM 39.9997 -78.9814 273° West 408 470 43,000  Level Cleveland Center
Fri 08:30:46 PM 40.0017 -79.1250 271° West 402 463 43,000  Level Cleveland Center
Fri 08:31:46 PM 40.0033 -79.2714 271° West 402 463 43,000  Level Cleveland Center
Fri 08:32:46 PM 40.0050 -79.4203 271° West 402 463 43,000  Level Cleveland Center
Fri 08:33:46 PM 40.0106 -79.5667 273° West 402 463 43,000  Level Cleveland Center
Fri 08:34:46 PM 40.0097 -79.7103 270° West 402 463 43,000  Level Cleveland Center
Fri 08:35:46 PM 40.0128 -79.8594 272° West 402 463 43,000  Level Cleveland Center
Fri 08:36:46 PM 40.0133 -79.9786 270° West 402 463 43,000  Level Cleveland Center
Fri 08:37:46 PM 40.0164 -80.1386 271° West 402 463 43,000  Level Cleveland Center
Fri 08:38:46 PM 40.0167 -80.2875 270° West 402 463 43,000  Level Cleveland Center
Fri 08:39:46 PM 40.0150 -80.4339 269° West 402 463 43,000  Level Cleveland Center
Fri 08:41:19 PM 39.9425 -80.6403 245° Southwest 405 466 43,000  Level Indianapolis Center
Fri 08:42:20 PM 39.8936 -80.7706 244° Southwest 403 464 43,000  Level Indianapolis Center
Fri 08:43:21 PM 39.8442 -80.9019 244° Southwest 404 465 43,000  Level Indianapolis Center
Fri 08:44:23 PM 39.7944 -81.0317 244° Southwest 402 463 43,000  Level Indianapolis Center
Fri 08:45:24 PM 39.7347 -81.1875 244° Southwest 403 464 43,000  Level Indianapolis Center
Fri 08:46:25 PM 39.6856 -81.3181 244° Southwest 403 464 43,000  Level Indianapolis Center
Fri 08:47:27 PM 39.6353 -81.4469 243° Southwest 401 461 43,000  Level Indianapolis Center
Fri 08:48:28 PM 39.5856 -81.5739 243° Southwest 399 459 43,000  Level Indianapolis Center
Fri 08:49:29 PM 39.5356 -81.7036 243° Southwest 401 461 43,000  Level Indianapolis Center
Fri 08:50:31 PM 39.4856 -81.8303 243° Southwest 398 458 43,000  Level Indianapolis Center
Fri 08:51:32 PM 39.4350 -81.9575 243° Southwest 399 459 43,000  Level Indianapolis Center
Fri 08:52:33 PM 39.3839 -82.0869 243° Southwest 403 464 43,000  Level Indianapolis Center
Fri 08:53:34 PM 39.3231 -82.2408 243° Southwest 405 466 43,000  Level Indianapolis Center
Fri 08:54:36 PM 39.2722 -82.3681 243° Southwest 401 461 43,000  Level Indianapolis Center
Fri 08:55:37 PM 39.2236 -82.4864 242° Southwest 404 465 43,000  Level Indianapolis Center
Fri 08:56:38 PM 39.1697 -82.6228 243° Southwest 399 459 43,000  Level Indianapolis Center
Fri 08:57:39 PM 39.1181 -82.7503 242° Southwest 402 463 43,000  Level Indianapolis Center
Fri 08:58:41 PM 39.0650 -82.8783 242° Southwest 406 467 43,000  Level Indianapolis Center
Fri 08:59:42 PM 39.0131 -83.0069 243° Southwest 406 467 43,000  Level Indianapolis Center
Fri 09:00:43 PM 38.9606 -83.1350 242° Southwest 406 467 43,000  Level Indianapolis Center
Fri 09:01:44 PM 38.8994 -83.2836 242° Southwest 400 460 43,000  Level Indianapolis Center
Fri 09:02:45 PM 38.8464 -83.4119 242° Southwest 402 463 43,000  Level Indianapolis Center
Fri 09:03:47 PM 38.7950 -83.5369 242° Southwest 395 455 43,000  Level Indianapolis Center
Fri 09:04:48 PM 38.7422 -83.6631 242° Southwest 397 457 43,000  Level Indianapolis Center
Fri 09:05:49 PM 38.6889 -83.7919 242° Southwest 403 464 43,000  Level Indianapolis Center
Fri 09:06:50 PM 38.6328 -83.9231 241° Southwest 403 464 43,000  Level Indianapolis Center
Fri 09:07:51 PM 38.5789 -84.0500 242° Southwest 407 468 43,000  Level Indianapolis Center
Fri 09:08:53 PM 38.5261 -84.1775 242° Southwest 408 470 43,000  Level Indianapolis Center
Fri 09:09:54 PM 38.4714 -84.3047 241° Southwest 408 470 43,000  Level Indianapolis Center
Fri 09:10:55 PM 38.4172 -84.4331 242° Southwest 409 471 43,000  Level Indianapolis Center
Fri 09:11:56 PM 38.3628 -84.5586 241° Southwest 407 468 43,000  Level Indianapolis Center
Fri 09:12:58 PM 38.3078 -84.6847 241° Southwest 405 466 43,000  Level Indianapolis Center
Fri 09:13:58 PM 38.2544 -84.8097 242° Southwest 404 465 43,000  Level Indianapolis Center
Fri 09:15:00 PM 38.2006 -84.9339 241° Southwest 402 463 43,000  Level Indianapolis Center
Fri 09:16:01 PM 38.1369 -85.0800 241° Southwest 404 465 43,000  Level Indianapolis Center
Fri 09:17:02 PM 38.0839 -85.1994 241° Southwest 402 463 43,000  Level Indianapolis Center
Fri 09:18:03 PM 38.0297 -85.3236 241° Southwest 402 463 43,000  Level Indianapolis Center
Fri 09:19:05 PM 37.9756 -85.4467 241° Southwest 400 460 43,000  Level Indianapolis Center
Fri 09:20:06 PM 37.9203 -85.5725 241° Southwest 403 464 43,000  Level Indianapolis Center
Fri 09:21:07 PM 37.8650 -85.6975 241° Southwest 404 465 43,000  Level Indianapolis Center
Fri 09:22:08 PM 37.8089 -85.8222 240° Southwest 403 464 43,000  Level Indianapolis Center
Fri 09:23:10 PM 37.7531 -85.9481 241° Southwest 405 466 43,000  Level Indianapolis Center
Fri 09:24:11 PM 37.6967 -86.0706 240° Southwest 403 464 43,000  Level Indianapolis Center
Fri 09:25:12 PM 37.6408 -86.1964 241° Southwest 400 460 43,000  Level Indianapolis Center
Fri 09:26:13 PM 37.5847 -86.3200 240° Southwest 402 463 43,000  Level Indianapolis Center
Fri 09:27:14 PM 37.5292 -86.4417 240° Southwest 399 459 43,000  Level Indianapolis Center
Fri 09:28:16 PM 37.4739 -86.5642 240° Southwest 400 460 43,000  Level Indianapolis Center
Fri 09:29:17 PM 37.4081 -86.7056 240° Southwest 399 459 43,000  Level Indianapolis Center
Fri 09:30:08 PM 37.3622 -86.8081 241° Southwest 406 467 43,000  Level Memphis Center
Fri 09:31:08 PM 37.3075 -86.9306 241° Southwest 411 473 43,000  Level Memphis Center
Fri 09:32:08 PM 37.2503 -87.0528 240° Southwest 411 473 43,000  Level Memphis Center
Fri 09:33:08 PM 37.1931 -87.1750 240° Southwest 411 473 43,000  Level Memphis Center
Fri 09:34:08 PM 37.1378 -87.2942 240° Southwest 411 473 43,000  Level Memphis Center
Fri 09:35:08 PM 37.0903 -87.3975 240° Southwest 405 466 43,000  Level Memphis Center
Fri 09:36:08 PM 37.0347 -87.5167 240° Southwest 405 466 43,000  Level Memphis Center
Fri 09:37:08 PM 36.9789 -87.6328 239° Southwest 405 466 43,000  Level Memphis Center
Fri 09:38:08 PM 36.9231 -87.7489 239° Southwest 400 460 43,000  Level Memphis Center
Fri 09:39:08 PM 36.8692 -87.8647 240° Southwest 400 460 43,000  Level Memphis Center
Fri 09:40:08 PM 36.8111 -87.9858 239° Southwest 400 460 43,000  Level Memphis Center
Fri 09:41:08 PM 36.7511 -88.1144 240° Southwest 398 458 43,000  Level Memphis Center
Fri 09:42:08 PM 36.6969 -88.2325 240° Southwest 398 458 43,000  Level Memphis Center
Fri 09:43:08 PM 36.6464 -88.3344 238° Southwest 398 458 43,000  Level Memphis Center
Fri 09:44:08 PM 36.5881 -88.4522 238° Southwest 398 458 43,000  Level Memphis Center
Fri 09:45:08 PM 36.5314 -88.5672 239° Southwest 398 458 43,000  Level Memphis Center
Fri 09:46:08 PM 36.4725 -88.6847 238° Southwest 404 465 43,000  Level Memphis Center
Fri 09:47:08 PM 36.4156 -88.7994 238° Southwest 404 465 43,000  Level Memphis Center
Fri 09:48:08 PM 36.3567 -88.9164 238° Southwest 404 465 43,000  Level Memphis Center
Fri 09:49:08 PM 36.2994 -89.0308 238° Southwest 404 465 43,000  Level Memphis Center
Fri 09:50:08 PM 36.2403 -89.1503 238° Southwest 404 465 43,000  Level Memphis Center
Fri 09:51:08 PM 36.1789 -89.2694 237° Southwest 404 465 43,000  Level Memphis Center
Fri 09:52:08 PM 36.1214 -89.3858 239° Southwest 410 472 43,000  Level Memphis Center
Fri 09:53:08 PM 36.0658 -89.5019 239° Southwest 405 466 43,000  Level Memphis Center
Fri 09:54:08 PM 36.0064 -89.6231 239° Southwest 399 459 43,000  Level Memphis Center
Fri 09:55:08 PM 35.9381 -89.7239 230° Southwest 394 453 43,000  Level Memphis Center
Fri 09:56:08 PM 35.8467 -89.7961 213° Southwest 386 444 43,000  Level Memphis Center
Fri 09:57:08 PM 35.7531 -89.8658 211° Southwest 392 451 43,000  Level Memphis Center
Fri 09:58:08 PM 35.6803 -89.9278 215° Southwest 397 457 43,000  Level Memphis Center
Fri 09:59:08 PM 35.5889 -90.0022 214° Southwest 390 449 43,000  Level Memphis Center
Fri 10:00:08 PM 35.4889 -90.0792 212° Southwest 395 455 43,000  Level Memphis Center
Fri 10:01:08 PM 35.3972 -90.1508 213° Southwest 395 455 43,000  Level Memphis Center
Fri 10:02:08 PM 35.3036 -90.2222 212° Southwest 395 455 43,000  Level Memphis Center
Fri 10:03:08 PM 35.2181 -90.2936 214° Southwest 390 449 43,000  Level Memphis Center
Fri 10:04:08 PM 35.1264 -90.3597 211° Southwest 390 449 43,000  Level Memphis Center
Fri 10:05:08 PM 35.0367 -90.4281 212° Southwest 390 449 43,000  Level Memphis Center
Fri 10:06:08 PM 34.9467 -90.4989 213° Southwest 390 449 43,000  Level Memphis Center
Fri 10:07:08 PM 34.8569 -90.5697 213° Southwest 390 449 43,000  Level Memphis Center
Fri 10:08:08 PM 34.7650 -90.6353 210° Southwest 390 449 43,000  Level Memphis Center
Fri 10:09:08 PM 34.6753 -90.7056 213° Southwest 390 449 43,000  Level Memphis Center
Fri 10:10:08 PM 34.5872 -90.7683 210° Southwest 390 449 43,000  Level Memphis Center
Fri 10:11:08 PM 34.4972 -90.8383 213° Southwest 390 449 43,000  Level Memphis Center
Fri 10:12:08 PM 34.4094 -90.9058 212° Southwest 390 449 43,000  Level Memphis Center
Fri 10:13:08 PM 34.3172 -90.9733 211° Southwest 390 449 43,000  Level Memphis Center
Fri 10:14:08 PM 34.2378 -91.0331 212° Southwest 385 443 43,000  Level Memphis Center
Fri 10:15:08 PM 34.1475 -91.1000 212° Southwest 385 443 43,000  Level Memphis Center
Fri 10:16:08 PM 34.0575 -91.1669 212° Southwest 385 443 43,000  Level Memphis Center
Fri 10:17:08 PM 33.9672 -91.2364 213° Southwest 390 449 43,000  Level Memphis Center
Fri 10:18:08 PM 33.8750 -91.3056 212° Southwest 390 449 43,000  Level Memphis Center
Fri 10:19:08 PM 33.7761 -91.3767 211° Southwest 390 449 43,000  Level Memphis Center
Fri 10:20:08 PM 33.6817 -91.4456 211° Southwest 399 459 43,000  Level Memphis Center
Fri 10:21:08 PM 33.5914 -91.5119 211° Southwest 399 459 43,000  Level Memphis Center
Fri 10:22:08 PM 33.5053 -91.5731 211° Southwest 393 452 43,000  Level Memphis Center
Fri 10:24:02 PM 33.3400 -91.6975 212° Southwest 359 413 43,000  Level Fort Worth Center
Fri 10:25:02 PM 33.2469 -91.7656 211° Southwest 379 436 43,000  Level Fort Worth Center
Fri 10:26:02 PM 33.1542 -91.8336 212° Southwest 384 442 43,000  Level Fort Worth Center
Fri 10:27:01 PM 33.0592 -91.9014 211° Southwest 392 451 43,000  Level Fort Worth Center
Fri 10:28:02 PM 32.9536 -91.9747 210° Southwest 392 451 43,000  Level Fort Worth Center
Fri 10:29:02 PM 32.8628 -92.0419 212° Southwest 392 451 43,000  Level Fort Worth Center
Fri 10:30:02 PM 32.7675 -92.1069 210° Southwest 392 451 43,000  Level Fort Worth Center
Fri 10:31:01 PM 32.6722 -92.1744 211° Southwest 397 457 43,000  Level Fort Worth Center
Fri 10:33:29 PM 32.4536 -92.3361 212° Southwest 394 453 43,000  Level Houston Center
Fri 10:34:30 PM 32.3608 -92.4014 211° Southwest 388 447 43,000  Level Houston Center
Fri 10:35:31 PM 32.2697 -92.4667 211° Southwest 383 441 43,000  Level Houston Center
Fri 10:36:32 PM 32.1772 -92.5319 211° Southwest 387 445 43,000  Level Houston Center
Fri 10:37:33 PM 32.0661 -92.6114 211° Southwest 389 448 43,000  Level Houston Center
Fri 10:38:34 PM 31.9744 -92.6794 212° Southwest 386 444 43,000  Level Houston Center
Fri 10:39:35 PM 31.9014 -92.7681 226° Southwest 377 434 43,000  Level Houston Center
Fri 10:40:36 PM 31.8289 -92.8572 226° Southwest 378 435 43,000  Level Houston Center
Fri 10:41:37 PM 31.7578 -92.9492 228° Southwest 379 436 43,000  Level Houston Center
Fri 10:42:38 PM 31.6864 -93.0436 228° Southwest 385 443 43,000  Level Houston Center
Fri 10:43:39 PM 31.6128 -93.1356 227° Southwest 387 445 43,000 -49 Level Houston Center
Fri 10:44:40 PM 31.5397 -93.2272 227° Southwest 385 443 42,900  Descending Houston Center
Fri 10:45:41 PM 31.4583 -93.3300 227° Southwest 386 444 43,000 49 Climbing Houston Center
Fri 10:46:42 PM 31.3872 -93.4192 227° Southwest 378 435 43,000 -590 Level Houston Center
Fri 10:47:43 PM 31.3150 -93.5100 227° Southwest 383 441 41,800 -1,672 Descending Houston Center
Fri 10:48:44 PM 31.2375 -93.6047 226° Southwest 377 434 39,600 -2,115 Descending Houston Center
Fri 10:49:45 PM 31.1664 -93.6947 227° Southwest 378 435 37,500 -2,016 Descending Houston Center
Fri 10:50:46 PM 31.0936 -93.7856 227° Southwest 383 441 35,500 -2,016 Descending Houston Center
Fri 10:51:47 PM 31.0186 -93.8792 227° Southwest 392 451 33,400 -2,066 Descending Houston Center
Fri 10:52:48 PM 30.9436 -93.9733 227° Southwest 398 458 31,300 -2,115 Descending Houston Center
Fri 10:53:49 PM 30.8642 -94.0689 226° Southwest 408 470 29,100 -2,164 Descending Houston Center
Fri 10:54:50 PM 30.7836 -94.1667 226° Southwest 419 482 26,900 -2,115 Descending Houston Center
Fri 10:55:51 PM 30.7050 -94.2625 226° Southwest 416 479 24,800 -2,250 Descending Houston Center
Fri 10:56:18 PM 30.6642 -94.3153 228° Southwest 382 440 23,600 -1,967 Descending Houston Center
Fri 10:56:52 PM 30.6342 -94.3503 225° Southwest 391 450 22,800 -1,890 Descending Houston Center
Fri 10:57:31 PM 30.5794 -94.4164 226° Southwest 354 407 21,300 -1,869 Descending Houston Center
Fri 10:57:53 PM 30.5667 -94.4322 227° Southwest 362 417 20,900 -1,964 Descending Houston Center
Fri 10:58:26 PM 30.5139 -94.4953 226° Southwest 359 413 19,500 -1,967 Descending Houston Center
Fri 10:58:54 PM 30.4933 -94.5211 227° Southwest 358 412 18,900 -1,900 Descending Houston Center
Fri 10:59:26 PM 30.4508 -94.5836 232° Southwest 354 407 17,600 -2,164 Descending Houston Center
Fri 10:59:55 PM 30.4264 -94.6242 235° Southwest 351 404 16,700 -1,770 Descending Houston Center
Fri 11:00:27 PM 30.3925 -94.6758 233° Southwest 352 405 15,800 -1,770 Descending Houston Center
Fri 11:00:56 PM 30.3694 -94.7156 236° Southwest 351 404 14,900 -1,837 Descending Houston Center
Fri 11:01:16 PM 30.3450 -94.7497 230° Southwest 351 404 14,300 -1,869 Descending Houston Center
Fri 11:01:57 PM 30.3106 -94.8056 234° Southwest 350 403 13,000 -1,075 Descending Houston Center
Fri 11:02:23 PM 30.2831 -94.8472 233° Southwest 339 390 13,100 -300 Climbing Houston Center
Fri 11:02:57 PM 30.2556 -94.8900 233° Southwest 333 383 12,700 -1,279 Descending Houston Center
Fri 11:03:24 PM 30.2281 -94.9317 233° Southwest 331 381 11,800 -1,869 Descending Houston Center
Fri 11:03:58 PM 30.2000 -94.9750 233° Southwest 332 382 10,800 -1,700 Descending Houston Center
Fri 11:04:24 PM 30.1711 -95.0186 233° Southwest 335 386 10,100 -689 Descending Houston Center
Fri 11:04:59 PM 30.1450 -95.0589 233° Southwest 328 377 10,100  Level Houston Center
Fri 11:05:31 PM 30.0914 -95.0889 206° Southwest 333 383 10,100  Level Houston Center
Fri 11:06:00 PM 30.0611 -95.1025 201° Southwest 335 386 10,100 -98 Level Houston Center
Fri 11:06:32 PM 30.0028 -95.1286 201° Southwest 340 391 10,000 -295 Descending Houston Center
Fri 11:07:01 PM 29.9758 -95.1403 201° Southwest 330 380 9,800 -1,377 Descending Houston Center
Fri 11:07:33 PM 29.9261 -95.1622 201° Southwest 285 328 8,600 -1,770 Descending Houston Center
Fri 11:08:02 PM 29.9019 -95.1717 199° South 285 328 8,000 -1,889 Descending Houston Center
Fri 11:08:27 PM 29.8572 -95.1900 200° South 286 329 6,900 -1,967 Descending Houston Center
Fri 11:09:03 PM 29.8286 -95.2033 202° Southwest 283 326 6,000 -873 Descending Houston Center
Fri 11:09:22 PM 29.7908 -95.2197 201° Southwest 278 320 6,100  Climbing Houston Center
Fri 11:10:03 PM 29.7569 -95.2344 201° Southwest 279 321 6,000 -118 Descending Houston Center
Fri 11:11:04 PM 29.6769 -95.2678 200° South 254 292 5,900 61 Descending Houston Center
Fri 11:11:42 PM 29.6531 -95.2989 229° Southwest 210 242 6,100  Climbing Houston Center
Fri 11:12:05 PM 29.6544 -95.3250 274° West 226 260 5,900 -857 Descending Houston Center
Fri 11:12:24 PM 29.6561 -95.3539 274° West 258 297 5,500 -1,574 Descending Houston Center
Fri 11:13:06 PM 29.6619 -95.4058 277° West 252 290 4,300 -1,573 Descending Houston Center
Fri 11:14:07 PM 29.7217 -95.4253 344° North 258 297 2,800 -1,425 Descending Houston Center
Fri 11:14:26 PM 29.7356 -95.3972 60° Northeast 233 268 2,400 -984 Descending Houston Center
Fri 11:15:08 PM 29.7261 -95.3589 106° East 235 270 1,800 -846 Descending Houston Center
Fri 11:15:44 PM 29.6925 -95.3375 151° Southeast 169 194 1,300 -787 Descending Houston Center
Fri 11:16:09 PM 29.6850 -95.3278 132° Southeast 197 227 1,000 -627 Descending Houston Center
Fri 11:16:51 PM 29.6639 -95.3025 134° Southeast 126 145 600 -689 Descending Houston Center
Fri 11:17:10 PM 29.6603 -95.2975 130° Southeast 156 180 300 -375 Descending Houston Center
Fri 11:18:11 PM 29.6372 -95.2689 133° Southeast 147 169 100 -197 Descending Houston Center

Login

Don't have an account? Register now (free) for customized features, flight alerts, and more!